sensor_id;sensor_type;location;lat;lon;timestamp;pressure;altitude;pressure_sealevel;temperature;humidity
7433;BME280;32233;49.500;7.764;2023-04-03T00:01:16;99408.03;;;2.40;73.65
7433;BME280;32233;49.500;7.764;2023-04-03T00:03:42;99404.09;;;2.25;73.68
7433;BME280;32233;49.500;7.764;2023-04-03T00:06:10;99403.19;;;2.04;77.59
7433;BME280;32233;49.500;7.764;2023-04-03T00:08:39;99398.88;;;1.82;76.50
7433;BME280;32233;49.500;7.764;2023-04-03T00:11:06;99406.09;;;1.78;78.41
7433;BME280;32233;49.500;7.764;2023-04-03T00:13:33;99397.00;;;1.72;78.21
7433;BME280;32233;49.500;7.764;2023-04-03T00:16:00;99405.78;;;1.60;78.20
7433;BME280;32233;49.500;7.764;2023-04-03T00:18:27;99399.84;;;1.58;79.05
7433;BME280;32233;49.500;7.764;2023-04-03T00:20:53;99412.06;;;1.58;78.44
7433;BME280;32233;49.500;7.764;2023-04-03T00:23:20;99410.88;;;1.51;79.83
7433;BME280;32233;49.500;7.764;2023-04-03T00:25:47;99411.38;;;1.44;81.52
7433;BME280;32233;49.500;7.764;2023-04-03T00:28:13;99418.72;;;1.39;79.75
7433;BME280;32233;49.500;7.764;2023-04-03T00:30:39;99419.88;;;1.46;80.66
7433;BME280;32233;49.500;7.764;2023-04-03T00:33:06;99409.38;;;1.37;82.94
7433;BME280;32233;49.500;7.764;2023-04-03T00:35:34;99417.31;;;1.24;81.78
7433;BME280;32233;49.500;7.764;2023-04-03T00:38:00;99420.38;;;1.18;84.75
7433;BME280;32233;49.500;7.764;2023-04-03T00:40:27;99419.56;;;1.06;84.39
7433;BME280;32233;49.500;7.764;2023-04-03T00:42:59;99419.19;;;0.99;85.62
7433;BME280;32233;49.500;7.764;2023-04-03T00:47:55;99412.66;;;0.83;87.41
7433;BME280;32233;49.500;7.764;2023-04-03T00:50:22;99415.59;;;0.89;84.09
7433;BME280;32233;49.500;7.764;2023-04-03T00:52:49;99415.97;;;0.96;85.87
7433;BME280;32233;49.500;7.764;2023-04-03T00:55:16;99409.81;;;0.86;87.88
7433;BME280;32233;49.500;7.764;2023-04-03T00:57:44;99417.28;;;0.90;84.22
7433;BME280;32233;49.500;7.764;2023-04-03T01:00:15;99415.03;;;0.86;86.05
7433;BME280;32233;49.500;7.764;2023-04-03T01:02:43;99410.75;;;0.73;86.47
7433;BME280;32233;49.500;7.764;2023-04-03T01:05:13;99407.53;;;0.81;86.90
7433;BME280;32233;49.500;7.764;2023-04-03T01:07:43;99401.16;;;0.85;88.85
7433;BME280;32233;49.500;7.764;2023-04-03T01:10:11;99406.84;;;0.79;87.39
7433;BME280;32233;49.500;7.764;2023-04-03T01:12:43;99410.72;;;0.62;89.60
7433;BME280;32233;49.500;7.764;2023-04-03T01:15:25;99406.22;;;0.64;91.24
7433;BME280;32233;49.500;7.764;2023-04-03T01:17:54;99398.41;;;0.53;91.00
7433;BME280;32233;49.500;7.764;2023-04-03T01:23:39;99395.50;;;0.34;91.05
7433;BME280;32233;49.500;7.764;2023-04-03T01:25:58;99392.50;;;0.27;90.69
7433;BME280;32233;49.500;7.764;2023-04-03T01:28:28;99400.31;;;0.27;90.87
7433;BME280;32233;49.500;7.764;2023-04-03T01:31:24;99394.06;;;0.30;91.04
7433;BME280;32233;49.500;7.764;2023-04-03T01:33:54;99401.66;;;0.33;90.66
7433;BME280;32233;49.500;7.764;2023-04-03T01:36:25;99398.19;;;0.32;91.63
7433;BME280;32233;49.500;7.764;2023-04-03T01:38:53;99394.66;;;0.33;91.59
7433;BME280;32233;49.500;7.764;2023-04-03T01:41:21;99399.03;;;0.33;91.13
7433;BME280;32233;49.500;7.764;2023-04-03T01:43:49;99396.31;;;0.34;90.52
7433;BME280;32233;49.500;7.764;2023-04-03T01:46:16;99395.63;;;0.43;90.88
7433;BME280;32233;49.500;7.764;2023-04-03T01:48:43;99397.63;;;0.40;91.59
7433;BME280;32233;49.500;7.764;2023-04-03T01:51:10;99400.47;;;0.37;91.71
7433;BME280;32233;49.500;7.764;2023-04-03T01:53:37;99400.34;;;0.38;91.51
7433;BME280;32233;49.500;7.764;2023-04-03T01:56:04;99398.22;;;0.43;93.47
7433;BME280;32233;49.500;7.764;2023-04-03T01:58:31;99397.75;;;0.38;92.72
7433;BME280;32233;49.500;7.764;2023-04-03T02:00:58;99399.41;;;0.39;91.42
7433;BME280;32233;49.500;7.764;2023-04-03T02:03:25;99397.28;;;0.33;91.58
7433;BME280;32233;49.500;7.764;2023-04-03T02:05:52;99397.16;;;0.35;92.65
7433;BME280;32233;49.500;7.764;2023-04-03T02:08:19;99397.38;;;0.32;92.55
7433;BME280;32233;49.500;7.764;2023-04-03T02:10:49;99394.53;;;0.35;92.77
7433;BME280;32233;49.500;7.764;2023-04-03T02:13:17;99397.38;;;0.32;92.32
7433;BME280;32233;49.500;7.764;2023-04-03T02:15:44;99400.09;;;0.30;92.86
7433;BME280;32233;49.500;7.764;2023-04-03T02:18:15;99395.59;;;0.32;93.08
7433;BME280;32233;49.500;7.764;2023-04-03T02:20:42;99391.47;;;0.30;92.40
7433;BME280;32233;49.500;7.764;2023-04-03T02:23:09;99394.28;;;0.27;92.68
7433;BME280;32233;49.500;7.764;2023-04-03T02:25:36;99396.28;;;0.23;93.83
7433;BME280;32233;49.500;7.764;2023-04-03T02:28:05;99390.72;;;0.16;94.41
7433;BME280;32233;49.500;7.764;2023-04-03T02:30:31;99380.75;;;0.10;95.10
7433;BME280;32233;49.500;7.764;2023-04-03T02:32:58;99386.66;;;0.12;94.88
7433;BME280;32233;49.500;7.764;2023-04-03T02:35:25;99388.53;;;0.10;93.96
7433;BME280;32233;49.500;7.764;2023-04-03T02:37:54;99385.72;;;0.13;96.05
7433;BME280;32233;49.500;7.764;2023-04-03T02:40:22;99380.63;;;0.12;96.03
7433;BME280;32233;49.500;7.764;2023-04-03T02:42:49;99387.94;;;0.07;97.12
7433;BME280;32233;49.500;7.764;2023-04-03T02:45:17;99387.03;;;0.19;96.96
7433;BME280;32233;49.500;7.764;2023-04-03T02:47:44;99389.28;;;0.12;97.06
7433;BME280;32233;49.500;7.764;2023-04-03T02:50:10;99391.53;;;0.17;96.00
7433;BME280;32233;49.500;7.764;2023-04-03T02:52:37;99383.81;;;0.15;96.48
7433;BME280;32233;49.500;7.764;2023-04-03T02:55:04;99388.66;;;0.09;95.92
7433;BME280;32233;49.500;7.764;2023-04-03T02:57:31;99395.28;;;0.13;96.31
7433;BME280;32233;49.500;7.764;2023-04-03T02:59:58;99392.19;;;0.08;97.23
7433;BME280;32233;49.500;7.764;2023-04-03T03:02:24;99392.09;;;0.09;97.18
7433;BME280;32233;49.500;7.764;2023-04-03T03:04:51;99387.72;;;0.10;96.83
7433;BME280;32233;49.500;7.764;2023-04-03T03:07:17;99389.50;;;0.09;96.96
7433;BME280;32233;49.500;7.764;2023-04-03T03:09:44;99390.75;;;0.04;97.20
7433;BME280;32233;49.500;7.764;2023-04-03T03:12:10;99394.91;;;0.06;97.45
7433;BME280;32233;49.500;7.764;2023-04-03T03:14:37;99394.69;;;0.09;96.98
7433;BME280;32233;49.500;7.764;2023-04-03T03:17:03;99393.59;;;0.01;97.83
7433;BME280;32233;49.500;7.764;2023-04-03T03:19:30;99395.44;;;-0.02;97.25
7433;BME280;32233;49.500;7.764;2023-04-03T03:21:56;99392.50;;;-0.08;97.08
7433;BME280;32233;49.500;7.764;2023-04-03T03:24:23;99390.81;;;-0.09;97.33
7433;BME280;32233;49.500;7.764;2023-04-03T03:26:49;99385.94;;;-0.14;97.32
7433;BME280;32233;49.500;7.764;2023-04-03T03:29:16;99391.53;;;-0.07;96.46
7433;BME280;32233;49.500;7.764;2023-04-03T03:31:44;99390.44;;;-0.16;96.85
7433;BME280;32233;49.500;7.764;2023-04-03T03:34:11;99390.31;;;-0.14;96.84
7433;BME280;32233;49.500;7.764;2023-04-03T03:36:38;99387.94;;;-0.17;96.13
7433;BME280;32233;49.500;7.764;2023-04-03T03:39:05;99395.97;;;-0.20;95.93
7433;BME280;32233;49.500;7.764;2023-04-03T03:41:32;99398.94;;;-0.14;94.66
7433;BME280;32233;49.500;7.764;2023-04-03T03:43:59;99397.78;;;-0.10;94.84
7433;BME280;32233;49.500;7.764;2023-04-03T03:46:28;99395.72;;;-0.17;94.20
7433;BME280;32233;49.500;7.764;2023-04-03T03:48:54;99396.06;;;-0.22;95.33
7433;BME280;32233;49.500;7.764;2023-04-03T03:51:21;99397.00;;;-0.23;95.98
7433;BME280;32233;49.500;7.764;2023-04-03T03:53:48;99397.72;;;-0.21;96.29
7433;BME280;32233;49.500;7.764;2023-04-03T03:56:17;99399.09;;;-0.28;93.90
7433;BME280;32233;49.500;7.764;2023-04-03T03:58:44;99398.50;;;-0.32;94.07
7433;BME280;32233;49.500;7.764;2023-04-03T04:01:12;99394.00;;;-0.30;95.23
7433;BME280;32233;49.500;7.764;2023-04-03T04:03:43;99398.16;;;-0.27;95.22
7433;BME280;32233;49.500;7.764;2023-04-03T04:06:14;99396.66;;;-0.18;94.83
7433;BME280;32233;49.500;7.764;2023-04-03T04:08:41;99400.75;;;-0.27;94.49
7433;BME280;32233;49.500;7.764;2023-04-03T04:11:09;99400.97;;;-0.30;95.56
7433;BME280;32233;49.500;7.764;2023-04-03T04:13:37;99400.16;;;-0.31;95.33
7433;BME280;32233;49.500;7.764;2023-04-03T04:16:05;99400.69;;;-0.38;96.71
7433;BME280;32233;49.500;7.764;2023-04-03T04:18:32;99401.31;;;-0.35;92.50
7433;BME280;32233;49.500;7.764;2023-04-03T04:20:59;99402.63;;;-0.29;92.01
7433;BME280;32233;49.500;7.764;2023-04-03T04:23:26;99405.63;;;-0.22;90.96
7433;BME280;32233;49.500;7.764;2023-04-03T04:25:53;99403.66;;;-0.19;90.97
7433;BME280;32233;49.500;7.764;2023-04-03T04:28:21;99403.31;;;-0.14;89.16
7433;BME280;32233;49.500;7.764;2023-04-03T04:30:50;99399.16;;;-0.17;90.36
7433;BME280;32233;49.500;7.764;2023-04-03T04:33:18;99411.22;;;-0.16;90.71
7433;BME280;32233;49.500;7.764;2023-04-03T04:35:47;99403.03;;;-0.22;89.71
7433;BME280;32233;49.500;7.764;2023-04-03T04:38:16;99403.53;;;-0.17;91.21
7433;BME280;32233;49.500;7.764;2023-04-03T04:40:44;99399.88;;;-0.15;90.52
7433;BME280;32233;49.500;7.764;2023-04-03T04:43:10;99398.22;;;-0.16;90.20
7433;BME280;32233;49.500;7.764;2023-04-03T04:45:42;99406.66;;;-0.25;91.14
7433;BME280;32233;49.500;7.764;2023-04-03T04:48:09;99403.97;;;-0.23;92.19
7433;BME280;32233;49.500;7.764;2023-04-03T04:50:35;99400.63;;;-0.26;93.17
7433;BME280;32233;49.500;7.764;2023-04-03T04:53:02;99406.78;;;-0.27;91.88
7433;BME280;32233;49.500;7.764;2023-04-03T04:55:30;99403.91;;;-0.35;91.96
7433;BME280;32233;49.500;7.764;2023-04-03T04:57:56;99411.00;;;-0.37;91.81
7433;BME280;32233;49.500;7.764;2023-04-03T05:00:23;99410.66;;;-0.32;92.32
7433;BME280;32233;49.500;7.764;2023-04-03T05:02:50;99419.50;;;-0.35;90.84
7433;BME280;32233;49.500;7.764;2023-04-03T05:05:18;99415.25;;;-0.36;91.21
7433;BME280;32233;49.500;7.764;2023-04-03T05:07:45;99415.25;;;-0.36;92.03
7433;BME280;32233;49.500;7.764;2023-04-03T05:10:12;99417.84;;;-0.36;94.51
7433;BME280;32233;49.500;7.764;2023-04-03T05:12:39;99418.16;;;-0.40;93.33
7433;BME280;32233;49.500;7.764;2023-04-03T05:15:07;99429.38;;;-0.40;94.75
7433;BME280;32233;49.500;7.764;2023-04-03T05:17:34;99432.19;;;-0.43;94.34
7433;BME280;32233;49.500;7.764;2023-04-03T05:20:04;99424.50;;;-0.44;93.99
7433;BME280;32233;49.500;7.764;2023-04-03T05:22:31;99424.28;;;-0.41;94.84
7433;BME280;32233;49.500;7.764;2023-04-03T05:25:04;99425.66;;;-0.48;95.41
7433;BME280;32233;49.500;7.764;2023-04-03T05:27:31;99429.75;;;-0.33;95.81
7433;BME280;32233;49.500;7.764;2023-04-03T05:29:58;99427.66;;;-0.15;95.34
7433;BME280;32233;49.500;7.764;2023-04-03T05:32:26;99434.97;;;-0.33;94.20
7433;BME280;32233;49.500;7.764;2023-04-03T05:35:09;99431.50;;;-0.21;95.04
7433;BME280;32233;49.500;7.764;2023-04-03T05:37:37;99432.94;;;-0.17;95.13
7433;BME280;32233;49.500;7.764;2023-04-03T05:40:05;99439.84;;;-0.05;94.93
7433;BME280;32233;49.500;7.764;2023-04-03T05:42:32;99437.25;;;0.43;92.27
7433;BME280;32233;49.500;7.764;2023-04-03T05:44:59;99436.91;;;1.06;88.89
7433;BME280;32233;49.500;7.764;2023-04-03T05:47:26;99439.91;;;1.80;85.98
7433;BME280;32233;49.500;7.764;2023-04-03T05:49:53;99439.81;;;2.87;78.67
7433;BME280;32233;49.500;7.764;2023-04-03T05:52:29;99437.69;;;4.23;71.91
7433;BME280;32233;49.500;7.764;2023-04-03T05:54:57;99443.56;;;5.12;67.97
7433;BME280;32233;49.500;7.764;2023-04-03T05:57:26;99446.56;;;3.82;70.90
7433;BME280;32233;49.500;7.764;2023-04-03T05:59:53;99443.97;;;3.82;72.21
7433;BME280;32233;49.500;7.764;2023-04-03T06:02:22;99446.63;;;3.00;77.77
7433;BME280;32233;49.500;7.764;2023-04-03T06:04:50;99450.91;;;2.27;82.04
7433;BME280;32233;49.500;7.764;2023-04-03T06:07:20;99445.88;;;2.03;85.73
7433;BME280;32233;49.500;7.764;2023-04-03T06:09:51;99452.13;;;2.43;83.83
7433;BME280;32233;49.500;7.764;2023-04-03T06:12:18;99449.84;;;4.34;76.73
7433;BME280;32233;49.500;7.764;2023-04-03T06:14:45;99446.19;;;5.50;69.15
7433;BME280;32233;49.500;7.764;2023-04-03T06:17:17;99445.66;;;6.47;64.68
7433;BME280;32233;49.500;7.764;2023-04-03T06:19:45;99445.75;;;6.81;62.14
7433;BME280;32233;49.500;7.764;2023-04-03T06:22:11;99451.47;;;5.40;67.55
7433;BME280;32233;49.500;7.764;2023-04-03T06:24:38;99450.72;;;7.10;63.14
7433;BME280;32233;49.500;7.764;2023-04-03T06:27:05;99453.44;;;6.56;63.53
7433;BME280;32233;49.500;7.764;2023-04-03T06:29:31;99449.00;;;7.18;62.03
7433;BME280;32233;49.500;7.764;2023-04-03T06:31:58;99463.25;;;6.18;64.57
7433;BME280;32233;49.500;7.764;2023-04-03T06:34:24;99452.94;;;5.15;67.21
7433;BME280;32233;49.500;7.764;2023-04-03T06:36:51;99469.38;;;4.97;68.71
7433;BME280;32233;49.500;7.764;2023-04-03T06:39:19;99467.91;;;6.60;64.29
7433;BME280;32233;49.500;7.764;2023-04-03T06:41:50;99469.97;;;7.70;59.92
7433;BME280;32233;49.500;7.764;2023-04-03T06:44:24;99464.00;;;6.82;61.77
7433;BME280;32233;49.500;7.764;2023-04-03T06:46:51;99464.22;;;5.90;65.54
7433;BME280;32233;49.500;7.764;2023-04-03T06:49:18;99474.44;;;6.92;62.28
7433;BME280;32233;49.500;7.764;2023-04-03T06:51:45;99471.75;;;5.47;65.67
7433;BME280;32233;49.500;7.764;2023-04-03T06:54:11;99470.78;;;6.31;63.79
7433;BME280;32233;49.500;7.764;2023-04-03T06:56:38;99477.13;;;7.52;64.29
7433;BME280;32233;49.500;7.764;2023-04-03T06:59:04;99467.25;;;9.12;56.32
7433;BME280;32233;49.500;7.764;2023-04-03T07:01:31;99474.81;;;7.23;60.28
7433;BME280;32233;49.500;7.764;2023-04-03T07:03:58;99475.69;;;8.67;55.90
7433;BME280;32233;49.500;7.764;2023-04-03T07:06:25;99478.81;;;8.62;56.50
7433;BME280;32233;49.500;7.764;2023-04-03T07:08:54;99463.38;;;9.95;51.58
7433;BME280;32233;49.500;7.764;2023-04-03T07:11:22;99471.63;;;9.53;51.96
7433;BME280;32233;49.500;7.764;2023-04-03T07:13:49;99472.88;;;8.60;55.11
7433;BME280;32233;49.500;7.764;2023-04-03T07:16:16;99469.19;;;10.99;49.69
7433;BME280;32233;49.500;7.764;2023-04-03T07:18:42;99475.50;;;9.09;53.70
7433;BME280;32233;49.500;7.764;2023-04-03T07:21:09;99475.75;;;9.55;52.76
7433;BME280;32233;49.500;7.764;2023-04-03T07:23:36;99475.28;;;10.61;50.22
7433;BME280;32233;49.500;7.764;2023-04-03T07:26:03;99483.66;;;9.63;52.44
7433;BME280;32233;49.500;7.764;2023-04-03T07:28:30;99476.50;;;10.51;51.32
7433;BME280;32233;49.500;7.764;2023-04-03T07:31:05;99477.28;;;10.20;50.46
7433;BME280;32233;49.500;7.764;2023-04-03T07:33:33;99490.69;;;8.99;53.44
7433;BME280;32233;49.500;7.764;2023-04-03T07:36:01;99500.19;;;8.43;54.91
7433;BME280;32233;49.500;7.764;2023-04-03T07:38:28;99498.56;;;8.42;55.46
7433;BME280;32233;49.500;7.764;2023-04-03T07:40:54;99501.72;;;9.19;53.41
7433;BME280;32233;49.500;7.764;2023-04-03T07:43:21;99495.94;;;9.32;52.80
7433;BME280;32233;49.500;7.764;2023-04-03T07:45:49;99496.44;;;8.62;54.72
7433;BME280;32233;49.500;7.764;2023-04-03T07:48:20;99500.19;;;6.88;60.91
7433;BME280;32233;49.500;7.764;2023-04-03T07:50:47;99504.31;;;6.91;59.44
7433;BME280;32233;49.500;7.764;2023-04-03T07:53:14;99503.09;;;6.14;63.39
7433;BME280;32233;49.500;7.764;2023-04-03T07:55:41;99503.88;;;5.97;64.19
7433;BME280;32233;49.500;7.764;2023-04-03T07:58:12;99508.72;;;7.94;58.97
7433;BME280;32233;49.500;7.764;2023-04-03T08:00:39;99509.28;;;8.81;55.34
7433;BME280;32233;49.500;7.764;2023-04-03T08:03:07;99491.13;;;9.91;52.22
7433;BME280;32233;49.500;7.764;2023-04-03T08:05:42;99505.31;;;9.26;52.50
7433;BME280;32233;49.500;7.764;2023-04-03T08:08:11;99501.66;;;9.60;53.04
7433;BME280;32233;49.500;7.764;2023-04-03T08:10:38;99497.00;;;10.95;49.79
7433;BME280;32233;49.500;7.764;2023-04-03T08:13:06;99499.63;;;10.72;49.87
7433;BME280;32233;49.500;7.764;2023-04-03T08:15:33;99498.47;;;11.79;46.44
7433;BME280;32233;49.500;7.764;2023-04-03T08:17:59;99492.44;;;12.15;46.84
7433;BME280;32233;49.500;7.764;2023-04-03T08:20:27;99496.88;;;11.26;47.19
7433;BME280;32233;49.500;7.764;2023-04-03T08:22:54;99500.75;;;10.54;49.34
7433;BME280;32233;49.500;7.764;2023-04-03T08:25:21;99498.69;;;11.25;46.09
7433;BME280;32233;49.500;7.764;2023-04-03T08:27:48;99483.97;;;10.70;48.77
7433;BME280;32233;49.500;7.764;2023-04-03T08:30:15;99498.41;;;10.28;48.93
7433;BME280;32233;49.500;7.764;2023-04-03T08:32:41;99496.91;;;9.95;50.19
7433;BME280;32233;49.500;7.764;2023-04-03T08:35:09;99494.63;;;9.11;51.67
7433;BME280;32233;49.500;7.764;2023-04-03T08:37:38;99505.81;;;8.56;53.47
7433;BME280;32233;49.500;7.764;2023-04-03T08:40:07;99502.81;;;8.43;53.43
7433;BME280;32233;49.500;7.764;2023-04-03T08:42:44;99503.94;;;7.30;55.53
7433;BME280;32233;49.500;7.764;2023-04-03T08:45:25;99506.63;;;8.06;54.59
7433;BME280;32233;49.500;7.764;2023-04-03T08:48:05;99514.94;;;7.85;55.54
7433;BME280;32233;49.500;7.764;2023-04-03T08:50:38;99506.09;;;7.08;56.90
7433;BME280;32233;49.500;7.764;2023-04-03T08:53:12;99507.63;;;6.12;60.51
7433;BME280;32233;49.500;7.764;2023-04-03T08:55:43;99504.00;;;5.95;61.40
7433;BME280;32233;49.500;7.764;2023-04-03T08:58:12;99507.59;;;7.63;58.54
7433;BME280;32233;49.500;7.764;2023-04-03T09:00:53;99507.84;;;8.20;55.24
7433;BME280;32233;49.500;7.764;2023-04-03T09:03:22;99509.63;;;8.62;55.40
7433;BME280;32233;49.500;7.764;2023-04-03T09:05:56;99496.13;;;9.86;51.86
7433;BME280;32233;49.500;7.764;2023-04-03T09:08:30;99505.03;;;9.85;51.43
7433;BME280;32233;49.500;7.764;2023-04-03T09:11:16;99502.53;;;10.62;48.64
7433;BME280;32233;49.500;7.764;2023-04-03T09:13:56;99494.72;;;9.51;53.88
7433;BME280;32233;49.500;7.764;2023-04-03T09:22:13;99512.28;;;8.70;52.86
7433;BME280;32233;49.500;7.764;2023-04-03T09:24:45;99514.63;;;6.66;57.40
7433;BME280;32233;49.500;7.764;2023-04-03T09:27:13;99509.25;;;7.12;56.00
7433;BME280;32233;49.500;7.764;2023-04-03T09:29:42;99517.84;;;7.22;56.34
7433;BME280;32233;49.500;7.764;2023-04-03T09:32:25;99517.13;;;6.40;56.88
7433;BME280;32233;49.500;7.764;2023-04-03T09:34:53;99518.16;;;5.75;58.80
7433;BME280;32233;49.500;7.764;2023-04-03T09:37:40;99507.91;;;6.36;58.52
7433;BME280;32233;49.500;7.764;2023-04-03T09:42:54;99525.47;;;6.36;57.11
7433;BME280;32233;49.500;7.764;2023-04-03T09:45:36;99514.47;;;5.67;57.02
7433;BME280;32233;49.500;7.764;2023-04-03T09:48:16;99514.41;;;5.77;57.77
7433;BME280;32233;49.500;7.764;2023-04-03T09:53:40;99519.66;;;5.30;58.50
7433;BME280;32233;49.500;7.764;2023-04-03T09:58:46;99513.03;;;5.36;60.04
7433;BME280;32233;49.500;7.764;2023-04-03T10:01:38;99519.13;;;5.74;57.28
7433;BME280;32233;49.500;7.764;2023-04-03T10:04:15;99512.41;;;5.61;54.08
7433;BME280;32233;49.500;7.764;2023-04-03T10:06:46;99517.00;;;5.87;56.39
7433;BME280;32233;49.500;7.764;2023-04-03T10:09:28;99521.59;;;6.76;53.63
7433;BME280;32233;49.500;7.764;2023-04-03T10:14:54;99518.16;;;5.75;56.42
7433;BME280;32233;49.500;7.764;2023-04-03T10:31:25;99496.25;;;9.29;45.57
7433;BME280;32233;49.500;7.764;2023-04-03T10:37:00;99510.94;;;7.73;48.80
7433;BME280;32233;49.500;7.764;2023-04-03T10:50:44;99509.22;;;6.86;47.56
7433;BME280;32233;49.500;7.764;2023-04-03T10:56:19;99506.44;;;6.87;51.18
7433;BME280;32233;49.500;7.764;2023-04-03T10:58:53;99518.69;;;6.15;50.92
7433;BME280;32233;49.500;7.764;2023-04-03T11:01:27;99508.53;;;6.66;49.97
7433;BME280;32233;49.500;7.764;2023-04-03T11:03:59;99502.59;;;6.01;52.11
7433;BME280;32233;49.500;7.764;2023-04-03T11:06:35;99511.75;;;6.42;52.23
7433;BME280;32233;49.500;7.764;2023-04-03T11:09:15;99504.50;;;6.54;53.19
7433;BME280;32233;49.500;7.764;2023-04-03T11:11:44;99496.66;;;8.18;49.38
7433;BME280;32233;49.500;7.764;2023-04-03T11:14:32;99498.91;;;8.72;45.07
7433;BME280;32233;49.500;7.764;2023-04-03T11:17:25;99485.88;;;9.27;45.58
7433;BME280;32233;49.500;7.764;2023-04-03T11:20:22;99506.28;;;7.93;46.79
7433;BME280;32233;49.500;7.764;2023-04-03T11:23:00;99498.16;;;6.64;50.49
7433;BME280;32233;49.500;7.764;2023-04-03T11:25:29;99495.28;;;6.93;50.23
7433;BME280;32233;49.500;7.764;2023-04-03T11:28:00;99489.69;;;6.70;50.31
7433;BME280;32233;49.500;7.764;2023-04-03T11:35:45;99497.88;;;6.67;50.14
7433;BME280;32233;49.500;7.764;2023-04-03T11:38:23;99500.72;;;6.56;50.38
7433;BME280;32233;49.500;7.764;2023-04-03T11:40:54;99487.03;;;6.88;50.76
7433;BME280;32233;49.500;7.764;2023-04-03T11:43:29;99475.88;;;6.86;51.32
7433;BME280;32233;49.500;7.764;2023-04-03T11:46:04;99479.84;;;7.68;47.74
7433;BME280;32233;49.500;7.764;2023-04-03T11:50:59;99483.72;;;7.04;48.59
7433;BME280;32233;49.500;7.764;2023-04-03T11:56:01;99462.53;;;6.62;51.35
7433;BME280;32233;49.500;7.764;2023-04-03T12:01:06;99460.00;;;7.22;49.18
7433;BME280;32233;49.500;7.764;2023-04-03T12:03:56;99458.31;;;9.30;45.72
7433;BME280;32233;49.500;7.764;2023-04-03T12:08:53;99447.09;;;10.14;43.01
7433;BME280;32233;49.500;7.764;2023-04-03T12:11:30;99448.19;;;8.94;44.62
7433;BME280;32233;49.500;7.764;2023-04-03T12:16:34;99441.41;;;7.84;47.38
7433;BME280;32233;49.500;7.764;2023-04-03T12:29:23;99451.22;;;7.74;47.94
7433;BME280;32233;49.500;7.764;2023-04-03T12:32:12;99451.28;;;6.34;50.20
7433;BME280;32233;49.500;7.764;2023-04-03T12:46:07;99440.25;;;6.12;51.15
7433;BME280;32233;49.500;7.764;2023-04-03T12:48:56;99437.09;;;9.15;44.88
7433;BME280;32233;49.500;7.764;2023-04-03T12:51:38;99415.31;;;10.00;40.00
7433;BME280;32233;49.500;7.764;2023-04-03T12:54:16;99420.59;;;8.23;43.67
7433;BME280;32233;49.500;7.764;2023-04-03T12:56:45;99427.84;;;7.70;47.31
7433;BME280;32233;49.500;7.764;2023-04-03T12:59:23;99421.78;;;7.10;49.68
7433;BME280;32233;49.500;7.764;2023-04-03T13:01:55;99415.56;;;6.85;49.12
7433;BME280;32233;49.500;7.764;2023-04-03T13:04:22;99418.34;;;7.35;48.86
7433;BME280;32233;49.500;7.764;2023-04-03T13:06:49;99413.91;;;7.10;48.87
7433;BME280;32233;49.500;7.764;2023-04-03T13:09:30;99402.75;;;9.39;44.38
7433;BME280;32233;49.500;7.764;2023-04-03T13:12:12;99402.50;;;11.33;42.38
7433;BME280;32233;49.500;7.764;2023-04-03T13:14:39;99392.31;;;8.99;45.41
7433;BME280;32233;49.500;7.764;2023-04-03T13:17:14;99413.09;;;7.35;48.97
7433;BME280;32233;49.500;7.764;2023-04-03T13:19:41;99422.34;;;7.48;49.06
7433;BME280;32233;49.500;7.764;2023-04-03T13:22:34;99410.78;;;7.06;50.55
7433;BME280;32233;49.500;7.764;2023-04-03T13:25:08;99410.78;;;7.06;49.66
7433;BME280;32233;49.500;7.764;2023-04-03T13:27:36;99409.81;;;7.41;50.98
7433;BME280;32233;49.500;7.764;2023-04-03T13:30:06;99409.50;;;7.10;50.06
7433;BME280;32233;49.500;7.764;2023-04-03T13:32:33;99413.63;;;7.98;48.98
7433;BME280;32233;49.500;7.764;2023-04-03T13:35:00;99417.47;;;6.75;49.84
7433;BME280;32233;49.500;7.764;2023-04-03T13:37:55;99416.09;;;7.14;49.77
7433;BME280;32233;49.500;7.764;2023-04-03T13:40:21;99421.50;;;7.13;49.11
7433;BME280;32233;49.500;7.764;2023-04-03T13:43:05;99421.13;;;7.34;50.39
7433;BME280;32233;49.500;7.764;2023-04-03T13:45:34;99424.66;;;6.73;48.79
7433;BME280;32233;49.500;7.764;2023-04-03T13:48:19;99403.25;;;6.85;50.12
7433;BME280;32233;49.500;7.764;2023-04-03T13:50:57;99401.31;;;6.87;50.28
7433;BME280;32233;49.500;7.764;2023-04-03T13:53:25;99415.09;;;6.28;49.80
7433;BME280;32233;49.500;7.764;2023-04-03T13:56:08;99416.59;;;6.66;50.51
7433;BME280;32233;49.500;7.764;2023-04-03T13:58:36;99421.69;;;6.67;49.67
7433;BME280;32233;49.500;7.764;2023-04-03T14:01:18;99413.22;;;7.00;49.30
7433;BME280;32233;49.500;7.764;2023-04-03T14:04:01;99407.53;;;7.89;48.21
7433;BME280;32233;49.500;7.764;2023-04-03T14:06:29;99399.81;;;7.45;48.09
7433;BME280;32233;49.500;7.764;2023-04-03T14:08:56;99396.34;;;7.10;49.53
7433;BME280;32233;49.500;7.764;2023-04-03T14:11:24;99393.50;;;7.04;49.17
7433;BME280;32233;49.500;7.764;2023-04-03T14:13:55;99386.47;;;6.78;49.29
7433;BME280;32233;49.500;7.764;2023-04-03T14:16:27;99393.63;;;7.62;48.07
7433;BME280;32233;49.500;7.764;2023-04-03T14:18:56;99381.59;;;8.18;45.93
7433;BME280;32233;49.500;7.764;2023-04-03T14:21:23;99378.78;;;8.20;46.64
7433;BME280;32233;49.500;7.764;2023-04-03T14:23:50;99388.34;;;7.62;46.72
7433;BME280;32233;49.500;7.764;2023-04-03T14:26:19;99386.72;;;7.19;47.97
7433;BME280;32233;49.500;7.764;2023-04-03T14:28:50;99389.63;;;6.64;48.87
7433;BME280;32233;49.500;7.764;2023-04-03T14:31:19;99383.31;;;6.57;49.20
7433;BME280;32233;49.500;7.764;2023-04-03T14:33:46;99374.56;;;6.48;49.79
7433;BME280;32233;49.500;7.764;2023-04-03T14:36:24;99379.75;;;6.58;51.37
7433;BME280;32233;49.500;7.764;2023-04-03T14:38:52;99373.25;;;7.30;49.97
7433;BME280;32233;49.500;7.764;2023-04-03T14:41:22;99378.22;;;7.33;47.92
7433;BME280;32233;49.500;7.764;2023-04-03T14:43:49;99377.91;;;7.02;48.49
7433;BME280;32233;49.500;7.764;2023-04-03T14:46:21;99367.31;;;6.68;50.08
7433;BME280;32233;49.500;7.764;2023-04-03T14:48:54;99374.56;;;6.66;49.82
7433;BME280;32233;49.500;7.764;2023-04-03T14:51:21;99376.81;;;6.43;49.70
7433;BME280;32233;49.500;7.764;2023-04-03T14:53:48;99370.75;;;6.42;48.85
7433;BME280;32233;49.500;7.764;2023-04-03T14:56:22;99367.38;;;6.32;48.64
7433;BME280;32233;49.500;7.764;2023-04-03T14:58:54;99368.66;;;6.10;50.24
7433;BME280;32233;49.500;7.764;2023-04-03T15:01:21;99369.22;;;5.96;51.10
7433;BME280;32233;49.500;7.764;2023-04-03T15:03:48;99375.19;;;6.24;49.85
7433;BME280;32233;49.500;7.764;2023-04-03T15:06:15;99355.06;;;6.51;48.46
7433;BME280;32233;49.500;7.764;2023-04-03T15:08:43;99355.28;;;6.83;48.13